createdAt,value
2023-01-09T00:01:46.275Z,10.7
2023-01-09T00:06:48.324Z,10.4
2023-01-09T00:11:50.416Z,10.8
2023-01-09T00:16:52.649Z,10.7
2023-01-09T00:21:54.987Z,10.7
2023-01-09T00:26:57.033Z,11
2023-01-09T00:31:59.146Z,10.6
2023-01-09T00:37:01.449Z,10.3
2023-01-09T00:42:03.895Z,10.7
2023-01-09T00:47:06.056Z,11.1
2023-01-09T00:52:08.259Z,10.9
2023-01-09T00:57:10.391Z,10.8
2023-01-09T01:02:15.395Z,10.8
2023-01-09T01:07:18.425Z,11
2023-01-09T01:12:20.470Z,11
2023-01-09T01:17:22.585Z,11.2
2023-01-09T01:22:27.772Z,11.8
2023-01-09T01:27:29.959Z,12.3
2023-01-09T01:32:32.199Z,17.9
2023-01-09T01:37:32.759Z,11.9
2023-01-09T01:42:35.011Z,11.6
2023-01-09T01:47:37.201Z,11.8
2023-01-09T01:52:39.328Z,11.7
2023-01-09T01:57:41.735Z,11.9
2023-01-09T02:02:44.772Z,11.4
2023-01-09T02:07:47.409Z,11.3
2023-01-09T02:12:52.719Z,11.5
2023-01-09T02:17:55.007Z,11.4
2023-01-09T02:22:57.324Z,12.2
2023-01-09T02:27:59.426Z,12.2
2023-01-09T02:33:01.497Z,11.3
2023-01-09T02:38:03.763Z,13
2023-01-09T02:43:06.153Z,12.8
2023-01-09T02:48:08.479Z,12
2023-01-09T02:53:10.646Z,12.2
2023-01-09T02:58:12.996Z,11.7
2023-01-09T03:03:15.495Z,11.7
2023-01-09T03:08:17.867Z,10.7
2023-01-09T03:13:20.134Z,11.6
2023-01-09T03:18:22.359Z,11.4
2023-01-09T03:23:24.590Z,11.3
2023-01-09T03:28:27.142Z,10.6
2023-01-09T03:33:29.482Z,10.6
2023-01-09T03:38:32.233Z,10.5
2023-01-09T03:43:34.727Z,10.4
2023-01-09T03:48:36.865Z,10
2023-01-09T03:53:39.147Z,10.4
2023-01-09T03:58:41.413Z,10.7
2023-01-09T04:03:43.692Z,9.9
2023-01-09T04:08:45.978Z,10.3
2023-01-09T04:13:48.116Z,9.7
2023-01-09T04:18:50.359Z,9.7
2023-01-09T04:23:52.801Z,9.7
2023-01-09T04:28:55.227Z,9.7
2023-01-09T04:33:57.311Z,9.1
2023-01-09T04:38:59.555Z,9
2023-01-09T04:44:03.285Z,9.1
2023-01-09T04:49:05.520Z,9.2
2023-01-09T04:54:07.697Z,9.5
2023-01-09T04:59:09.879Z,9.3
2023-01-09T05:04:12.520Z,9
2023-01-09T05:09:15.099Z,9.3
2023-01-09T05:14:18.393Z,10
2023-01-09T05:19:20.793Z,8.9
2023-01-09T05:24:23.128Z,9
2023-01-09T05:29:26.940Z,9.4
2023-01-09T05:34:29.540Z,9.9
2023-01-09T05:39:31.785Z,9.7
2023-01-09T05:44:33.904Z,9.4
2023-01-09T05:49:35.975Z,9.7
2023-01-09T05:54:38.097Z,9.9
2023-01-09T05:59:40.210Z,9.1
2023-01-09T06:04:42.234Z,9.4
2023-01-09T06:09:44.909Z,9.4
2023-01-09T06:14:47.232Z,8.9
2023-01-09T06:19:49.632Z,9.5
2023-01-09T06:24:52.011Z,9.8
2023-01-09T06:29:54.313Z,9.5
2023-01-09T06:34:56.437Z,9.5
2023-01-09T06:39:58.602Z,9.5
2023-01-09T06:45:01.001Z,9.7
2023-01-09T06:50:03.442Z,9.2
2023-01-09T06:55:06.668Z,9.1
2023-01-09T07:00:09.148Z,9.5
2023-01-09T07:05:11.481Z,9.8
2023-01-09T07:10:13.642Z,10
2023-01-09T07:15:15.744Z,9.8
2023-01-09T07:20:18.174Z,10
2023-01-09T07:25:20.483Z,9.6
2023-01-09T07:30:23.037Z,10.2
2023-01-09T07:35:25.527Z,9.6
2023-01-09T07:40:27.761Z,10.6
2023-01-09T07:45:30.052Z,10.2
2023-01-09T07:50:32.293Z,9.4
2023-01-09T07:55:34.448Z,10.7
2023-01-09T08:00:36.838Z,10.3
2023-01-09T08:05:38.946Z,9.8
2023-01-09T08:10:41.033Z,10.3
2023-01-09T08:15:43.216Z,10.1
2023-01-09T08:20:45.816Z,9.9
2023-01-09T08:25:47.965Z,9.7
2023-01-09T08:30:50.611Z,10
2023-01-09T08:35:52.762Z,10.2
2023-01-09T08:40:54.972Z,9.5
2023-01-09T08:45:58.338Z,9.9
2023-01-09T08:51:00.420Z,10.8
2023-01-09T08:56:02.664Z,10.6
2023-01-09T09:01:05.017Z,10.1
2023-01-09T09:06:10.013Z,10.1
2023-01-09T09:11:10.873Z,10.6
2023-01-09T09:16:13.107Z,11.9
2023-01-09T09:21:15.277Z,11.7
2023-01-09T09:26:17.334Z,10.8
2023-01-09T09:31:20.615Z,11.1
2023-01-09T09:36:23.174Z,11.8
2023-01-09T09:41:25.321Z,12
2023-01-09T09:46:27.613Z,12.7
2023-01-09T09:51:29.987Z,13.2
2023-01-09T09:56:32.084Z,13
2023-01-09T10:01:34.318Z,19.9
2023-01-09T10:06:34.812Z,12.9
2023-01-09T10:11:36.897Z,13.3
2023-01-09T10:16:39.007Z,13.3
2023-01-09T10:21:41.306Z,13.3
2023-01-09T10:26:43.581Z,13.3
2023-01-09T10:31:46.026Z,14.1
2023-01-09T10:36:48.302Z,14.3
2023-01-09T10:41:50.564Z,13.8
2023-01-09T10:46:52.727Z,14.1
2023-01-09T10:51:55.289Z,13.9
2023-01-09T10:56:57.406Z,13.1
2023-01-09T11:01:59.782Z,13.3
2023-01-09T11:07:02.008Z,14.7
2023-01-09T11:12:04.271Z,14.5
2023-01-09T11:17:06.331Z,14.4
2023-01-09T11:22:08.402Z,15.2
2023-01-09T11:27:10.775Z,14.2
2023-01-09T11:32:13.055Z,20.9
2023-01-09T11:37:13.543Z,15.1
2023-01-09T11:42:15.643Z,14.4
2023-01-09T11:47:17.722Z,15.5
2023-01-09T11:52:19.759Z,15.8
2023-01-09T11:57:21.823Z,16.2
2023-01-09T12:02:23.995Z,16.2
2023-01-09T12:07:26.128Z,15.7
2023-01-09T12:12:28.193Z,17.3
2023-01-09T12:17:30.515Z,16.5
2023-01-09T12:22:32.587Z,16.7
2023-01-09T12:27:34.862Z,16.7
2023-01-09T12:32:39.109Z,17.3
2023-01-09T12:37:41.648Z,16.2
2023-01-09T12:42:43.704Z,17.4
2023-01-09T12:47:46.643Z,17.8
2023-01-09T12:52:48.908Z,17
2023-01-09T12:57:50.891Z,17.4
2023-01-09T13:03:12.336Z,16.1
2023-01-09T13:07:54.978Z,17.7
2023-01-09T13:12:56.954Z,15.8
2023-01-09T13:17:59.198Z,15.1
2023-01-09T13:23:01.590Z,15.5
2023-01-09T13:28:04.227Z,14.9
2023-01-09T13:33:06.896Z,16.2
2023-01-09T13:38:09.127Z,14.6
2023-01-09T13:43:11.168Z,14.7
2023-01-09T13:48:13.322Z,14.7
2023-01-09T13:53:15.335Z,14.5
2023-01-09T13:58:17.467Z,14.5
2023-01-09T14:03:20.844Z,14.7
2023-01-09T14:08:23.105Z,14
2023-01-09T14:13:25.388Z,14.3
2023-01-09T14:18:27.455Z,14.2
2023-01-09T14:23:53.472Z,13.7
2023-01-09T14:28:35.657Z,13.5
2023-01-09T14:33:37.889Z,19.4
2023-01-09T14:38:38.416Z,19.6
2023-01-09T14:43:38.969Z,13.5
2023-01-09T14:48:41.056Z,12.8
2023-01-09T14:53:43.287Z,12.9
2023-01-09T14:58:45.327Z,12.6
2023-01-09T15:03:47.514Z,12.6
2023-01-09T15:08:49.728Z,13.2
2023-01-09T15:13:51.856Z,12.7
2023-01-09T15:18:54.067Z,12.2
2023-01-09T15:23:56.343Z,12.4
2023-01-09T15:28:59.186Z,13.8
2023-01-09T15:34:01.621Z,13.8
2023-01-09T15:39:03.663Z,13.9
2023-01-09T15:44:05.601Z,13.9
2023-01-09T15:49:07.618Z,13.6
2023-01-09T15:54:09.664Z,14
2023-01-09T15:59:12.042Z,14.7
2023-01-09T16:04:14.292Z,15.1
2023-01-09T16:09:16.530Z,13.6
2023-01-09T16:14:18.789Z,13.1
2023-01-09T16:19:20.866Z,13.6
2023-01-09T16:24:23.099Z,13.2
2023-01-09T16:29:25.421Z,13.1
2023-01-09T16:34:27.394Z,13.2
2023-01-09T16:39:29.480Z,13.8
2023-01-09T16:44:31.809Z,14.5
2023-01-09T16:49:33.891Z,13.3
2023-01-09T16:54:36.118Z,13.4
2023-01-09T16:59:38.163Z,18.3
2023-01-09T17:04:38.789Z,12.9
2023-01-09T17:09:41.787Z,12.4
2023-01-09T17:14:44.630Z,12.7
2023-01-09T17:19:47.040Z,13.2
2023-01-09T17:24:49.215Z,12.8
2023-01-09T17:29:51.625Z,13
2023-01-09T17:34:56.842Z,22.6
2023-01-09T17:39:59.354Z,13
2023-01-09T17:45:01.512Z,13.4
2023-01-09T17:50:03.870Z,13.1
2023-01-09T17:55:06.511Z,13.8
2023-01-09T18:00:08.577Z,13.6
2023-01-09T18:05:11.292Z,13.7
2023-01-09T18:10:13.667Z,13.9
2023-01-09T18:15:16.180Z,24.7
2023-01-09T18:20:18.461Z,15.1
2023-01-09T18:25:20.915Z,15.8
2023-01-09T18:30:23.459Z,18.5
2023-01-09T18:35:25.716Z,18.3
2023-01-09T18:40:28.346Z,19.7
2023-01-09T18:45:30.933Z,19
2023-01-09T18:50:33.558Z,19.7
2023-01-09T18:55:35.784Z,18.8
2023-01-09T19:00:37.970Z,16.9
2023-01-09T19:05:40.257Z,17.2
2023-01-09T19:10:42.319Z,15.7
2023-01-09T19:15:45.165Z,16.1
2023-01-09T19:20:49.702Z,15.4
2023-01-09T19:25:50.525Z,15.1
2023-01-09T19:30:52.759Z,14.6
2023-01-09T19:35:55.185Z,14.6
2023-01-09T19:40:58.443Z,14.9
2023-01-09T19:46:01.192Z,14.8
2023-01-09T19:51:04.634Z,15.3
2023-01-09T19:56:07.013Z,17.1
2023-01-09T20:01:10.023Z,15.5
2023-01-09T20:06:12.706Z,14.7
2023-01-09T20:11:15.544Z,14.6
2023-01-09T20:16:18.027Z,13.7
2023-01-09T20:21:20.139Z,13.9
2023-01-09T20:26:22.288Z,13.8
2023-01-09T20:31:24.692Z,14.1
2023-01-09T20:36:29.095Z,13.9
2023-01-09T20:41:31.601Z,13.4
2023-01-09T20:46:33.791Z,13.4
2023-01-09T20:51:36.221Z,14
2023-01-09T20:56:38.472Z,20.4
2023-01-09T21:01:39.066Z,13.7
2023-01-09T21:06:41.646Z,13.4
2023-01-09T21:11:44.341Z,14.2
2023-01-09T21:16:55.542Z,14.1
2023-01-09T21:21:48.058Z,13.4
2023-01-09T21:26:54.192Z,14.6
2023-01-09T21:31:57.818Z,14.7
2023-01-09T21:37:00.422Z,14.1
2023-01-09T21:42:02.924Z,17.6
2023-01-09T21:47:05.352Z,14.9
2023-01-09T21:52:10.506Z,15.9
2023-01-09T21:57:12.965Z,14.7
2023-01-09T22:02:15.173Z,14.4
2023-01-09T22:07:17.595Z,19
2023-01-09T22:12:19.950Z,15
2023-01-09T22:17:22.036Z,14.8
2023-01-09T22:22:24.334Z,15.1
2023-01-09T22:27:26.531Z,15.1
2023-01-09T22:32:28.760Z,14.4
2023-01-09T22:37:30.978Z,14
2023-01-09T22:42:33.361Z,13.3
2023-01-09T22:47:35.657Z,13.4
2023-01-09T22:52:37.831Z,13.1
2023-01-09T22:57:40.048Z,13
2023-01-09T23:02:42.387Z,13.5
2023-01-09T23:07:45.180Z,12.8
2023-01-09T23:12:48.005Z,13.7
2023-01-09T23:17:50.373Z,13
2023-01-09T23:22:52.704Z,13.4
2023-01-09T23:27:55.265Z,12.9
2023-01-09T23:32:57.590Z,13.3
2023-01-09T23:37:59.663Z,13.2
2023-01-09T23:43:01.938Z,13.1
2023-01-09T23:48:04.153Z,13
2023-01-09T23:53:06.676Z,12.9
2023-01-09T23:58:09.262Z,13.2
